sensor_id;sensor_type;location;lat;lon;timestamp;P1;durP1;ratioP1;P2;durP2;ratioP2
48835;SDS011;62581;47.342;7.908;2024-02-28T00:03:37;30.23;;;17.08;;
48835;SDS011;62581;47.342;7.908;2024-02-28T00:06:04;30.20;;;17.63;;
48835;SDS011;62581;47.342;7.908;2024-02-28T00:08:31;30.67;;;17.40;;
48835;SDS011;62581;47.342;7.908;2024-02-28T00:10:58;33.40;;;17.80;;
48835;SDS011;62581;47.342;7.908;2024-02-28T00:13:25;30.23;;;17.30;;
48835;SDS011;62581;47.342;7.908;2024-02-28T00:15:53;30.90;;;17.77;;
48835;SDS011;62581;47.342;7.908;2024-02-28T00:18:21;34.50;;;18.35;;
48835;SDS011;62581;47.342;7.908;2024-02-28T00:20:48;32.30;;;18.30;;
48835;SDS011;62581;47.342;7.908;2024-02-28T00:23:15;31.48;;;16.90;;
48835;SDS011;62581;47.342;7.908;2024-02-28T00:25:42;29.38;;;18.02;;
48835;SDS011;62581;47.342;7.908;2024-02-28T00:28:09;32.42;;;17.90;;
48835;SDS011;62581;47.342;7.908;2024-02-28T00:30:36;30.88;;;17.77;;
48835;SDS011;62581;47.342;7.908;2024-02-28T00:33:05;32.15;;;17.30;;
48835;SDS011;62581;47.342;7.908;2024-02-28T00:35:32;30.02;;;16.63;;
48835;SDS011;62581;47.342;7.908;2024-02-28T00:37:59;29.83;;;17.40;;
48835;SDS011;62581;47.342;7.908;2024-02-28T00:40:26;30.17;;;16.52;;
48835;SDS011;62581;47.342;7.908;2024-02-28T00:42:53;31.25;;;16.70;;
48835;SDS011;62581;47.342;7.908;2024-02-28T00:45:20;27.80;;;16.75;;
48835;SDS011;62581;47.342;7.908;2024-02-28T00:47:47;31.70;;;17.63;;
48835;SDS011;62581;47.342;7.908;2024-02-28T00:50:16;30.75;;;18.08;;
48835;SDS011;62581;47.342;7.908;2024-02-28T00:52:43;29.88;;;16.73;;
48835;SDS011;62581;47.342;7.908;2024-02-28T00:55:10;34.00;;;18.20;;
48835;SDS011;62581;47.342;7.908;2024-02-28T00:57:37;31.35;;;18.50;;
48835;SDS011;62581;47.342;7.908;2024-02-28T01:00:04;32.80;;;17.98;;
48835;SDS011;62581;47.342;7.908;2024-02-28T01:02:33;30.88;;;16.98;;
48835;SDS011;62581;47.342;7.908;2024-02-28T01:05:00;31.45;;;17.13;;
48835;SDS011;62581;47.342;7.908;2024-02-28T01:07:28;30.40;;;17.77;;
48835;SDS011;62581;47.342;7.908;2024-02-28T01:09:55;29.25;;;17.40;;
48835;SDS011;62581;47.342;7.908;2024-02-28T01:12:22;30.27;;;18.45;;
48835;SDS011;62581;47.342;7.908;2024-02-28T01:14:49;34.42;;;17.58;;
48835;SDS011;62581;47.342;7.908;2024-02-28T01:17:16;30.98;;;18.73;;
48835;SDS011;62581;47.342;7.908;2024-02-28T01:19:43;32.30;;;18.63;;
48835;SDS011;62581;47.342;7.908;2024-02-28T01:22:09;30.67;;;17.92;;
48835;SDS011;62581;47.342;7.908;2024-02-28T01:26:22;36.88;;;21.17;;
48835;SDS011;62581;47.342;7.908;2024-02-28T01:28:49;37.58;;;21.77;;
48835;SDS011;62581;47.342;7.908;2024-02-28T01:31:16;38.83;;;22.38;;
48835;SDS011;62581;47.342;7.908;2024-02-28T01:33:43;43.50;;;23.42;;
48835;SDS011;62581;47.342;7.908;2024-02-28T01:36:11;41.50;;;23.60;;
48835;SDS011;62581;47.342;7.908;2024-02-28T01:38:38;42.53;;;24.20;;
48835;SDS011;62581;47.342;7.908;2024-02-28T01:41:05;42.17;;;24.08;;
48835;SDS011;62581;47.342;7.908;2024-02-28T01:43:34;40.30;;;23.65;;
48835;SDS011;62581;47.342;7.908;2024-02-28T01:46:01;40.88;;;23.42;;
48835;SDS011;62581;47.342;7.908;2024-02-28T01:48:31;33.15;;;20.65;;
48835;SDS011;62581;47.342;7.908;2024-02-28T01:50:58;34.58;;;20.70;;
48835;SDS011;62581;47.342;7.908;2024-02-28T01:53:25;34.58;;;21.38;;
48835;SDS011;62581;47.342;7.908;2024-02-28T01:55:52;37.50;;;21.33;;
48835;SDS011;62581;47.342;7.908;2024-02-28T01:58:22;39.47;;;21.63;;
48835;SDS011;62581;47.342;7.908;2024-02-28T02:00:51;36.23;;;21.17;;
48835;SDS011;62581;47.342;7.908;2024-02-28T02:03:19;36.65;;;21.38;;
48835;SDS011;62581;47.342;7.908;2024-02-28T02:05:46;36.00;;;21.35;;
48835;SDS011;62581;47.342;7.908;2024-02-28T02:08:13;34.63;;;20.45;;
48835;SDS011;62581;47.342;7.908;2024-02-28T02:10:41;34.30;;;19.67;;
48835;SDS011;62581;47.342;7.908;2024-02-28T02:13:08;32.03;;;19.70;;
48835;SDS011;62581;47.342;7.908;2024-02-28T02:15:35;32.88;;;20.50;;
48835;SDS011;62581;47.342;7.908;2024-02-28T02:18:03;32.22;;;19.38;;
48835;SDS011;62581;47.342;7.908;2024-02-28T02:23:00;30.85;;;19.10;;
48835;SDS011;62581;47.342;7.908;2024-02-28T02:25:27;33.75;;;20.10;;
48835;SDS011;62581;47.342;7.908;2024-02-28T02:27:54;31.75;;;19.15;;
48835;SDS011;62581;47.342;7.908;2024-02-28T02:30:20;36.47;;;19.80;;
48835;SDS011;62581;47.342;7.908;2024-02-28T02:32:47;33.40;;;20.45;;
48835;SDS011;62581;47.342;7.908;2024-02-28T02:35:14;35.15;;;20.48;;
48835;SDS011;62581;47.342;7.908;2024-02-28T02:37:43;32.25;;;18.80;;
48835;SDS011;62581;47.342;7.908;2024-02-28T02:40:14;31.25;;;19.17;;
48835;SDS011;62581;47.342;7.908;2024-02-28T02:42:42;34.92;;;20.10;;
48835;SDS011;62581;47.342;7.908;2024-02-28T02:45:08;34.83;;;19.67;;
48835;SDS011;62581;47.342;7.908;2024-02-28T02:47:35;31.98;;;19.10;;
48835;SDS011;62581;47.342;7.908;2024-02-28T02:50:02;33.83;;;18.90;;
48835;SDS011;62581;47.342;7.908;2024-02-28T02:52:30;30.73;;;17.83;;
48835;SDS011;62581;47.342;7.908;2024-02-28T02:54:57;32.95;;;17.75;;
48835;SDS011;62581;47.342;7.908;2024-02-28T02:57:25;33.33;;;18.08;;
48835;SDS011;62581;47.342;7.908;2024-02-28T02:59:52;28.88;;;17.77;;
48835;SDS011;62581;47.342;7.908;2024-02-28T03:02:19;28.17;;;17.33;;
48835;SDS011;62581;47.342;7.908;2024-02-28T03:04:46;29.60;;;17.08;;
48835;SDS011;62581;47.342;7.908;2024-02-28T03:07:13;29.90;;;17.15;;
48835;SDS011;62581;47.342;7.908;2024-02-28T03:09:40;28.30;;;15.07;;
48835;SDS011;62581;47.342;7.908;2024-02-28T03:12:07;30.00;;;15.88;;
48835;SDS011;62581;47.342;7.908;2024-02-28T03:14:36;28.50;;;15.90;;
48835;SDS011;62581;47.342;7.908;2024-02-28T03:19:29;28.15;;;15.45;;
48835;SDS011;62581;47.342;7.908;2024-02-28T03:21:56;25.00;;;14.90;;
48835;SDS011;62581;47.342;7.908;2024-02-28T03:24:23;25.15;;;14.55;;
48835;SDS011;62581;47.342;7.908;2024-02-28T03:26:50;26.90;;;14.50;;
48835;SDS011;62581;47.342;7.908;2024-02-28T03:29:17;25.25;;;14.68;;
48835;SDS011;62581;47.342;7.908;2024-02-28T03:31:45;28.02;;;15.15;;
48835;SDS011;62581;47.342;7.908;2024-02-28T03:34:13;25.50;;;15.23;;
48835;SDS011;62581;47.342;7.908;2024-02-28T03:36:40;26.63;;;14.90;;
48835;SDS011;62581;47.342;7.908;2024-02-28T03:39:06;25.98;;;14.48;;
48835;SDS011;62581;47.342;7.908;2024-02-28T03:41:34;26.67;;;15.10;;
48835;SDS011;62581;47.342;7.908;2024-02-28T03:44:01;26.40;;;14.88;;
48835;SDS011;62581;47.342;7.908;2024-02-28T03:46:28;22.65;;;14.32;;
48835;SDS011;62581;47.342;7.908;2024-02-28T03:48:57;25.15;;;14.80;;
48835;SDS011;62581;47.342;7.908;2024-02-28T03:51:24;24.55;;;14.52;;
48835;SDS011;62581;47.342;7.908;2024-02-28T03:53:50;25.73;;;14.50;;
48835;SDS011;62581;47.342;7.908;2024-02-28T03:56:21;25.40;;;14.98;;
48835;SDS011;62581;47.342;7.908;2024-02-28T03:58:50;26.92;;;15.20;;
48835;SDS011;62581;47.342;7.908;2024-02-28T04:01:17;35.78;;;18.17;;
48835;SDS011;62581;47.342;7.908;2024-02-28T04:03:44;36.00;;;19.48;;
48835;SDS011;62581;47.342;7.908;2024-02-28T04:06:12;40.75;;;20.10;;
48835;SDS011;62581;47.342;7.908;2024-02-28T04:08:40;30.25;;;17.83;;
48835;SDS011;62581;47.342;7.908;2024-02-28T04:11:07;30.30;;;17.58;;
48835;SDS011;62581;47.342;7.908;2024-02-28T04:13:34;34.15;;;19.77;;
48835;SDS011;62581;47.342;7.908;2024-02-28T04:16:01;41.40;;;21.23;;
48835;SDS011;62581;47.342;7.908;2024-02-28T04:18:29;38.00;;;21.42;;
48835;SDS011;62581;47.342;7.908;2024-02-28T04:20:56;41.38;;;22.30;;
48835;SDS011;62581;47.342;7.908;2024-02-28T04:23:24;40.67;;;21.67;;
48835;SDS011;62581;47.342;7.908;2024-02-28T04:25:51;42.17;;;22.08;;
48835;SDS011;62581;47.342;7.908;2024-02-28T04:28:18;38.53;;;21.92;;
48835;SDS011;62581;47.342;7.908;2024-02-28T04:30:45;39.08;;;22.35;;
48835;SDS011;62581;47.342;7.908;2024-02-28T04:33:12;46.65;;;24.05;;
48835;SDS011;62581;47.342;7.908;2024-02-28T04:35:39;44.53;;;24.73;;
48835;SDS011;62581;47.342;7.908;2024-02-28T04:38:06;42.90;;;24.33;;
48835;SDS011;62581;47.342;7.908;2024-02-28T04:40:35;42.38;;;23.20;;
48835;SDS011;62581;47.342;7.908;2024-02-28T04:43:02;42.25;;;24.08;;
48835;SDS011;62581;47.342;7.908;2024-02-28T04:45:29;43.80;;;24.25;;
48835;SDS011;62581;47.342;7.908;2024-02-28T04:47:56;44.95;;;24.75;;
48835;SDS011;62581;47.342;7.908;2024-02-28T04:50:23;41.63;;;23.77;;
48835;SDS011;62581;47.342;7.908;2024-02-28T04:52:50;42.95;;;24.08;;
48835;SDS011;62581;47.342;7.908;2024-02-28T04:55:17;40.67;;;23.48;;
48835;SDS011;62581;47.342;7.908;2024-02-28T04:57:45;36.90;;;22.30;;
48835;SDS011;62581;47.342;7.908;2024-02-28T05:00:12;44.17;;;24.50;;
48835;SDS011;62581;47.342;7.908;2024-02-28T05:02:39;40.47;;;22.73;;
48835;SDS011;62581;47.342;7.908;2024-02-28T05:05:06;38.75;;;23.58;;
48835;SDS011;62581;47.342;7.908;2024-02-28T05:07:33;43.20;;;23.80;;
48835;SDS011;62581;47.342;7.908;2024-02-28T05:10:00;44.22;;;25.73;;
48835;SDS011;62581;47.342;7.908;2024-02-28T05:12:27;41.97;;;23.35;;
48835;SDS011;62581;47.342;7.908;2024-02-28T05:14:55;41.97;;;23.23;;
48835;SDS011;62581;47.342;7.908;2024-02-28T05:17:22;39.80;;;23.48;;
48835;SDS011;62581;47.342;7.908;2024-02-28T05:19:50;48.60;;;25.83;;
48835;SDS011;62581;47.342;7.908;2024-02-28T05:22:17;38.30;;;22.17;;
48835;SDS011;62581;47.342;7.908;2024-02-28T05:24:45;39.55;;;23.08;;
48835;SDS011;62581;47.342;7.908;2024-02-28T05:27:12;40.80;;;22.13;;
48835;SDS011;62581;47.342;7.908;2024-02-28T05:29:39;39.13;;;23.73;;
48835;SDS011;62581;47.342;7.908;2024-02-28T05:32:08;41.30;;;22.58;;
48835;SDS011;62581;47.342;7.908;2024-02-28T05:34:36;44.20;;;23.88;;
48835;SDS011;62581;47.342;7.908;2024-02-28T05:37:03;40.42;;;23.60;;
48835;SDS011;62581;47.342;7.908;2024-02-28T05:39:30;49.38;;;25.75;;
48835;SDS011;62581;47.342;7.908;2024-02-28T05:41:57;41.30;;;23.85;;
48835;SDS011;62581;47.342;7.908;2024-02-28T05:44:24;38.70;;;22.15;;
48835;SDS011;62581;47.342;7.908;2024-02-28T05:46:51;39.70;;;24.20;;
48835;SDS011;62581;47.342;7.908;2024-02-28T05:49:19;40.13;;;23.35;;
48835;SDS011;62581;47.342;7.908;2024-02-28T05:51:47;40.15;;;23.50;;
48835;SDS011;62581;47.342;7.908;2024-02-28T05:54:14;46.90;;;24.20;;
48835;SDS011;62581;47.342;7.908;2024-02-28T05:56:41;38.90;;;22.67;;
48835;SDS011;62581;47.342;7.908;2024-02-28T05:59:08;42.40;;;23.77;;
48835;SDS011;62581;47.342;7.908;2024-02-28T06:01:35;40.80;;;22.60;;
48835;SDS011;62581;47.342;7.908;2024-02-28T06:04:03;42.20;;;23.50;;
48835;SDS011;62581;47.342;7.908;2024-02-28T06:06:31;41.35;;;24.10;;
48835;SDS011;62581;47.342;7.908;2024-02-28T06:08:58;39.78;;;22.75;;
48835;SDS011;62581;47.342;7.908;2024-02-28T06:11:25;41.88;;;23.70;;
48835;SDS011;62581;47.342;7.908;2024-02-28T06:13:52;36.70;;;23.42;;
48835;SDS011;62581;47.342;7.908;2024-02-28T06:16:19;43.88;;;24.05;;
48835;SDS011;62581;47.342;7.908;2024-02-28T06:18:46;45.20;;;24.00;;
48835;SDS011;62581;47.342;7.908;2024-02-28T06:21:13;39.28;;;22.42;;
48835;SDS011;62581;47.342;7.908;2024-02-28T06:23:41;40.63;;;24.10;;
48835;SDS011;62581;47.342;7.908;2024-02-28T06:26:08;41.47;;;22.88;;
48835;SDS011;62581;47.342;7.908;2024-02-28T06:28:41;39.13;;;21.58;;
48835;SDS011;62581;47.342;7.908;2024-02-28T06:31:14;41.00;;;22.90;;
48835;SDS011;62581;47.342;7.908;2024-02-28T06:33:41;42.15;;;23.65;;
48835;SDS011;62581;47.342;7.908;2024-02-28T06:36:08;48.75;;;23.00;;
48835;SDS011;62581;47.342;7.908;2024-02-28T06:38:35;42.67;;;22.48;;
48835;SDS011;62581;47.342;7.908;2024-02-28T06:41:04;40.25;;;22.17;;
48835;SDS011;62581;47.342;7.908;2024-02-28T06:43:32;38.67;;;22.58;;
48835;SDS011;62581;47.342;7.908;2024-02-28T06:46:00;43.65;;;24.02;;
48835;SDS011;62581;47.342;7.908;2024-02-28T06:48:27;42.83;;;23.95;;
48835;SDS011;62581;47.342;7.908;2024-02-28T06:50:54;40.47;;;23.45;;
48835;SDS011;62581;47.342;7.908;2024-02-28T06:53:22;40.13;;;22.20;;
48835;SDS011;62581;47.342;7.908;2024-02-28T06:55:49;43.03;;;23.00;;
48835;SDS011;62581;47.342;7.908;2024-02-28T06:58:18;38.28;;;22.58;;
48835;SDS011;62581;47.342;7.908;2024-02-28T07:00:44;41.03;;;24.15;;
48835;SDS011;62581;47.342;7.908;2024-02-28T07:03:12;42.08;;;22.52;;
48835;SDS011;62581;47.342;7.908;2024-02-28T07:05:39;37.70;;;23.17;;
48835;SDS011;62581;47.342;7.908;2024-02-28T07:08:06;41.55;;;24.00;;
48835;SDS011;62581;47.342;7.908;2024-02-28T07:10:36;39.30;;;22.23;;
48835;SDS011;62581;47.342;7.908;2024-02-28T07:13:04;40.42;;;23.15;;
48835;SDS011;62581;47.342;7.908;2024-02-28T07:15:31;40.85;;;23.38;;
48835;SDS011;62581;47.342;7.908;2024-02-28T07:17:58;44.15;;;22.33;;
48835;SDS011;62581;47.342;7.908;2024-02-28T07:20:25;41.05;;;22.02;;
48835;SDS011;62581;47.342;7.908;2024-02-28T07:22:52;40.90;;;22.95;;
48835;SDS011;62581;47.342;7.908;2024-02-28T07:25:19;33.80;;;20.63;;
48835;SDS011;62581;47.342;7.908;2024-02-28T07:27:47;30.70;;;18.63;;
48835;SDS011;62581;47.342;7.908;2024-02-28T07:30:14;31.13;;;17.95;;
48835;SDS011;62581;47.342;7.908;2024-02-28T07:32:42;34.40;;;18.30;;
48835;SDS011;62581;47.342;7.908;2024-02-28T07:35:11;34.17;;;18.60;;
48835;SDS011;62581;47.342;7.908;2024-02-28T07:37:38;39.17;;;22.30;;
48835;SDS011;62581;47.342;7.908;2024-02-28T07:40:06;34.47;;;21.77;;
48835;SDS011;62581;47.342;7.908;2024-02-28T07:42:34;41.42;;;21.63;;
48835;SDS011;62581;47.342;7.908;2024-02-28T07:45:01;36.72;;;21.00;;
48835;SDS011;62581;47.342;7.908;2024-02-28T07:47:28;40.67;;;23.05;;
48835;SDS011;62581;47.342;7.908;2024-02-28T07:49:57;42.55;;;23.40;;
48835;SDS011;62581;47.342;7.908;2024-02-28T07:52:24;37.47;;;22.05;;
48835;SDS011;62581;47.342;7.908;2024-02-28T07:54:51;41.05;;;22.33;;
48835;SDS011;62581;47.342;7.908;2024-02-28T07:57:18;35.05;;;21.17;;
48835;SDS011;62581;47.342;7.908;2024-02-28T07:59:45;38.33;;;21.23;;
48835;SDS011;62581;47.342;7.908;2024-02-28T08:02:12;39.45;;;21.27;;
48835;SDS011;62581;47.342;7.908;2024-02-28T08:04:39;35.33;;;21.67;;
48835;SDS011;62581;47.342;7.908;2024-02-28T08:07:07;34.17;;;19.52;;
48835;SDS011;62581;47.342;7.908;2024-02-28T08:09:34;33.35;;;19.40;;
48835;SDS011;62581;47.342;7.908;2024-02-28T08:12:01;27.35;;;16.95;;
48835;SDS011;62581;47.342;7.908;2024-02-28T08:14:28;31.65;;;16.58;;
48835;SDS011;62581;47.342;7.908;2024-02-28T08:16:55;30.38;;;16.88;;
48835;SDS011;62581;47.342;7.908;2024-02-28T08:19:22;28.50;;;16.00;;
48835;SDS011;62581;47.342;7.908;2024-02-28T08:21:49;27.05;;;16.10;;
48835;SDS011;62581;47.342;7.908;2024-02-28T08:24:17;27.58;;;16.48;;
48835;SDS011;62581;47.342;7.908;2024-02-28T08:26:44;28.30;;;15.82;;
48835;SDS011;62581;47.342;7.908;2024-02-28T08:29:11;29.20;;;16.70;;
48835;SDS011;62581;47.342;7.908;2024-02-28T08:31:43;30.38;;;18.30;;
48835;SDS011;62581;47.342;7.908;2024-02-28T08:34:10;34.10;;;18.15;;
48835;SDS011;62581;47.342;7.908;2024-02-28T08:36:37;31.42;;;18.48;;
48835;SDS011;62581;47.342;7.908;2024-02-28T08:39:04;33.28;;;19.23;;
48835;SDS011;62581;47.342;7.908;2024-02-28T08:41:35;30.00;;;17.80;;
48835;SDS011;62581;47.342;7.908;2024-02-28T08:44:02;29.88;;;18.33;;
48835;SDS011;62581;47.342;7.908;2024-02-28T08:46:29;31.00;;;19.30;;
48835;SDS011;62581;47.342;7.908;2024-02-28T08:48:56;30.23;;;17.63;;
48835;SDS011;62581;47.342;7.908;2024-02-28T08:51:23;34.33;;;17.80;;
48835;SDS011;62581;47.342;7.908;2024-02-28T08:53:50;28.15;;;16.30;;
48835;SDS011;62581;47.342;7.908;2024-02-28T08:56:19;27.27;;;17.55;;
48835;SDS011;62581;47.342;7.908;2024-02-28T08:58:47;28.25;;;17.20;;
48835;SDS011;62581;47.342;7.908;2024-02-28T09:01:14;32.13;;;16.52;;
48835;SDS011;62581;47.342;7.908;2024-02-28T09:03:41;23.98;;;15.02;;
48835;SDS011;62581;47.342;7.908;2024-02-28T09:06:08;26.58;;;15.80;;
48835;SDS011;62581;47.342;7.908;2024-02-28T09:08:35;25.92;;;15.85;;
48835;SDS011;62581;47.342;7.908;2024-02-28T09:11:02;25.83;;;16.20;;
48835;SDS011;62581;47.342;7.908;2024-02-28T09:13:30;23.43;;;14.83;;
48835;SDS011;62581;47.342;7.908;2024-02-28T09:15:58;25.90;;;15.60;;
48835;SDS011;62581;47.342;7.908;2024-02-28T09:18:25;25.52;;;15.30;;
48835;SDS011;62581;47.342;7.908;2024-02-28T09:20:52;24.15;;;15.50;;
48835;SDS011;62581;47.342;7.908;2024-02-28T09:23:19;24.63;;;15.35;;
48835;SDS011;62581;47.342;7.908;2024-02-28T09:25:46;27.38;;;17.33;;
48835;SDS011;62581;47.342;7.908;2024-02-28T09:28:13;29.88;;;17.45;;
48835;SDS011;62581;47.342;7.908;2024-02-28T09:30:41;29.05;;;18.35;;
48835;SDS011;62581;47.342;7.908;2024-02-28T09:33:09;30.55;;;18.65;;
48835;SDS011;62581;47.342;7.908;2024-02-28T09:35:37;27.27;;;16.92;;
48835;SDS011;62581;47.342;7.908;2024-02-28T09:38:04;29.70;;;17.75;;
48835;SDS011;62581;47.342;7.908;2024-02-28T09:40:31;26.48;;;16.75;;
48835;SDS011;62581;47.342;7.908;2024-02-28T09:43:00;28.40;;;16.60;;
48835;SDS011;62581;47.342;7.908;2024-02-28T09:45:28;26.63;;;16.90;;
48835;SDS011;62581;47.342;7.908;2024-02-28T09:47:57;28.38;;;16.13;;
48835;SDS011;62581;47.342;7.908;2024-02-28T09:50:27;27.58;;;16.02;;
48835;SDS011;62581;47.342;7.908;2024-02-28T09:52:54;28.88;;;15.98;;
48835;SDS011;62581;47.342;7.908;2024-02-28T09:55:21;23.30;;;14.90;;
48835;SDS011;62581;47.342;7.908;2024-02-28T09:57:48;24.95;;;15.50;;
48835;SDS011;62581;47.342;7.908;2024-02-28T10:00:17;24.80;;;15.32;;
48835;SDS011;62581;47.342;7.908;2024-02-28T10:02:46;26.33;;;16.10;;
48835;SDS011;62581;47.342;7.908;2024-02-28T10:05:15;28.45;;;14.90;;
48835;SDS011;62581;47.342;7.908;2024-02-28T10:07:45;23.42;;;14.13;;
48835;SDS011;62581;47.342;7.908;2024-02-28T10:10:12;22.73;;;14.00;;
48835;SDS011;62581;47.342;7.908;2024-02-28T10:12:41;24.02;;;13.80;;
48835;SDS011;62581;47.342;7.908;2024-02-28T10:15:09;22.25;;;13.75;;
48835;SDS011;62581;47.342;7.908;2024-02-28T10:17:37;19.35;;;12.63;;
48835;SDS011;62581;47.342;7.908;2024-02-28T10:20:04;22.05;;;13.68;;
48835;SDS011;62581;47.342;7.908;2024-02-28T10:22:35;20.95;;;12.80;;
48835;SDS011;62581;47.342;7.908;2024-02-28T10:25:03;21.98;;;13.65;;
48835;SDS011;62581;47.342;7.908;2024-02-28T10:27:34;19.45;;;12.75;;
48835;SDS011;62581;47.342;7.908;2024-02-28T10:30:01;21.73;;;12.25;;
48835;SDS011;62581;47.342;7.908;2024-02-28T10:32:30;18.50;;;12.10;;
48835;SDS011;62581;47.342;7.908;2024-02-28T10:34:58;19.23;;;11.90;;
48835;SDS011;62581;47.342;7.908;2024-02-28T10:37:26;20.00;;;12.20;;
48835;SDS011;62581;47.342;7.908;2024-02-28T10:39:56;18.73;;;11.65;;
48835;SDS011;62581;47.342;7.908;2024-02-28T10:42:26;23.20;;;12.45;;
48835;SDS011;62581;47.342;7.908;2024-02-28T10:44:57;22.38;;;12.35;;
48835;SDS011;62581;47.342;7.908;2024-02-28T10:47:25;18.15;;;12.13;;
48835;SDS011;62581;47.342;7.908;2024-02-28T10:49:54;23.75;;;13.30;;
48835;SDS011;62581;47.342;7.908;2024-02-28T10:52:22;22.00;;;15.05;;
48835;SDS011;62581;47.342;7.908;2024-02-28T10:54:50;27.45;;;16.58;;
48835;SDS011;62581;47.342;7.908;2024-02-28T10:57:21;26.77;;;16.13;;
48835;SDS011;62581;47.342;7.908;2024-02-28T10:59:52;27.63;;;17.38;;
48835;SDS011;62581;47.342;7.908;2024-02-28T11:02:20;25.83;;;17.65;;
48835;SDS011;62581;47.342;7.908;2024-02-28T11:04:48;27.90;;;17.63;;
48835;SDS011;62581;47.342;7.908;2024-02-28T11:07:19;26.75;;;16.48;;
48835;SDS011;62581;47.342;7.908;2024-02-28T11:09:47;29.33;;;18.23;;
48835;SDS011;62581;47.342;7.908;2024-02-28T11:12:23;30.65;;;18.33;;
48835;SDS011;62581;47.342;7.908;2024-02-28T11:14:57;27.75;;;17.58;;
48835;SDS011;62581;47.342;7.908;2024-02-28T11:17:26;29.73;;;18.38;;
48835;SDS011;62581;47.342;7.908;2024-02-28T11:19:53;28.42;;;17.15;;
48835;SDS011;62581;47.342;7.908;2024-02-28T11:22:21;26.52;;;17.40;;
48835;SDS011;62581;47.342;7.908;2024-02-28T11:24:48;25.92;;;16.63;;
48835;SDS011;62581;47.342;7.908;2024-02-28T11:27:16;23.92;;;15.52;;
48835;SDS011;62581;47.342;7.908;2024-02-28T11:29:43;24.77;;;16.08;;
48835;SDS011;62581;47.342;7.908;2024-02-28T11:32:13;28.00;;;16.98;;
48835;SDS011;62581;47.342;7.908;2024-02-28T11:34:41;26.00;;;15.48;;
48835;SDS011;62581;47.342;7.908;2024-02-28T11:37:09;30.75;;;19.33;;
48835;SDS011;62581;47.342;7.908;2024-02-28T11:39:36;32.83;;;19.15;;
48835;SDS011;62581;47.342;7.908;2024-02-28T11:42:09;36.50;;;21.50;;
48835;SDS011;62581;47.342;7.908;2024-02-28T11:44:38;32.97;;;19.65;;
48835;SDS011;62581;47.342;7.908;2024-02-28T11:47:05;31.25;;;19.52;;
48835;SDS011;62581;47.342;7.908;2024-02-28T11:49:36;31.90;;;19.80;;
48835;SDS011;62581;47.342;7.908;2024-02-28T11:54:31;30.40;;;18.70;;
48835;SDS011;62581;47.342;7.908;2024-02-28T11:56:58;29.92;;;18.23;;
48835;SDS011;62581;47.342;7.908;2024-02-28T11:59:25;32.25;;;18.33;;
48835;SDS011;62581;47.342;7.908;2024-02-28T12:01:52;35.28;;;20.45;;
48835;SDS011;62581;47.342;7.908;2024-02-28T12:04:20;33.78;;;19.88;;
48835;SDS011;62581;47.342;7.908;2024-02-28T12:06:52;33.97;;;19.60;;
48835;SDS011;62581;47.342;7.908;2024-02-28T12:09:19;33.58;;;20.00;;
48835;SDS011;62581;47.342;7.908;2024-02-28T12:11:46;32.72;;;19.83;;
48835;SDS011;62581;47.342;7.908;2024-02-28T12:14:13;32.55;;;20.38;;
48835;SDS011;62581;47.342;7.908;2024-02-28T12:16:40;33.00;;;20.02;;
48835;SDS011;62581;47.342;7.908;2024-02-28T12:19:07;33.33;;;19.60;;
48835;SDS011;62581;47.342;7.908;2024-02-28T12:21:34;36.80;;;19.87;;
48835;SDS011;62581;47.342;7.908;2024-02-28T12:24:04;33.55;;;19.30;;
48835;SDS011;62581;47.342;7.908;2024-02-28T12:26:34;37.45;;;21.27;;
48835;SDS011;62581;47.342;7.908;2024-02-28T12:29:00;35.47;;;21.58;;
48835;SDS011;62581;47.342;7.908;2024-02-28T12:31:27;39.65;;;20.92;;
48835;SDS011;62581;47.342;7.908;2024-02-28T12:33:54;32.35;;;20.02;;
48835;SDS011;62581;47.342;7.908;2024-02-28T12:36:21;34.83;;;21.20;;
48835;SDS011;62581;47.342;7.908;2024-02-28T12:38:49;40.00;;;20.10;;
48835;SDS011;62581;47.342;7.908;2024-02-28T12:41:18;33.60;;;20.23;;
48835;SDS011;62581;47.342;7.908;2024-02-28T12:43:45;31.77;;;18.55;;
48835;SDS011;62581;47.342;7.908;2024-02-28T12:46:11;36.55;;;20.63;;
48835;SDS011;62581;47.342;7.908;2024-02-28T12:48:39;35.03;;;19.38;;
48835;SDS011;62581;47.342;7.908;2024-02-28T12:51:06;29.48;;;18.30;;
48835;SDS011;62581;47.342;7.908;2024-02-28T12:53:36;29.48;;;17.48;;
48835;SDS011;62581;47.342;7.908;2024-02-28T12:56:03;30.85;;;18.65;;
48835;SDS011;62581;47.342;7.908;2024-02-28T12:58:32;29.10;;;17.63;;
48835;SDS011;62581;47.342;7.908;2024-02-28T13:00:59;29.95;;;17.88;;
48835;SDS011;62581;47.342;7.908;2024-02-28T13:03:26;28.45;;;16.77;;
48835;SDS011;62581;47.342;7.908;2024-02-28T13:05:53;27.33;;;16.73;;
48835;SDS011;62581;47.342;7.908;2024-02-28T13:08:20;30.77;;;16.95;;
48835;SDS011;62581;47.342;7.908;2024-02-28T13:10:46;27.83;;;17.30;;
48835;SDS011;62581;47.342;7.908;2024-02-28T13:13:14;33.38;;;19.45;;
48835;SDS011;62581;47.342;7.908;2024-02-28T13:15:42;29.85;;;19.63;;
48835;SDS011;62581;47.342;7.908;2024-02-28T13:18:11;33.35;;;19.42;;
48835;SDS011;62581;47.342;7.908;2024-02-28T13:20:38;31.33;;;19.25;;
48835;SDS011;62581;47.342;7.908;2024-02-28T13:23:05;31.13;;;19.30;;
48835;SDS011;62581;47.342;7.908;2024-02-28T13:25:32;32.58;;;18.33;;
48835;SDS011;62581;47.342;7.908;2024-02-28T13:27:59;30.77;;;18.20;;
48835;SDS011;62581;47.342;7.908;2024-02-28T13:30:26;29.80;;;16.55;;
48835;SDS011;62581;47.342;7.908;2024-02-28T13:32:54;29.40;;;17.35;;
48835;SDS011;62581;47.342;7.908;2024-02-28T13:37:48;30.38;;;17.80;;
48835;SDS011;62581;47.342;7.908;2024-02-28T13:40:15;29.17;;;17.17;;
48835;SDS011;62581;47.342;7.908;2024-02-28T13:42:42;30.15;;;18.65;;
48835;SDS011;62581;47.342;7.908;2024-02-28T13:45:10;31.40;;;17.33;;
48835;SDS011;62581;47.342;7.908;2024-02-28T13:47:37;30.10;;;17.77;;
48835;SDS011;62581;47.342;7.908;2024-02-28T13:50:06;33.25;;;18.05;;
48835;SDS011;62581;47.342;7.908;2024-02-28T13:52:34;31.58;;;17.63;;
48835;SDS011;62581;47.342;7.908;2024-02-28T13:55:01;25.50;;;16.98;;
48835;SDS011;62581;47.342;7.908;2024-02-28T13:57:28;26.27;;;17.33;;
48835;SDS011;62581;47.342;7.908;2024-02-28T13:59:55;27.15;;;17.02;;
48835;SDS011;62581;47.342;7.908;2024-02-28T14:02:22;28.77;;;17.85;;
48835;SDS011;62581;47.342;7.908;2024-02-28T14:07:19;27.67;;;17.30;;
48835;SDS011;62581;47.342;7.908;2024-02-28T14:09:46;27.65;;;17.13;;
48835;SDS011;62581;47.342;7.908;2024-02-28T14:12:13;29.63;;;16.48;;
48835;SDS011;62581;47.342;7.908;2024-02-28T14:14:40;27.33;;;16.52;;
48835;SDS011;62581;47.342;7.908;2024-02-28T14:17:07;30.23;;;17.30;;
48835;SDS011;62581;47.342;7.908;2024-02-28T14:19:34;27.98;;;17.13;;
48835;SDS011;62581;47.342;7.908;2024-02-28T14:22:01;30.25;;;18.40;;
48835;SDS011;62581;47.342;7.908;2024-02-28T14:24:31;26.95;;;17.38;;
48835;SDS011;62581;47.342;7.908;2024-02-28T14:26:58;27.90;;;17.60;;
48835;SDS011;62581;47.342;7.908;2024-02-28T14:29:25;27.17;;;17.05;;
48835;SDS011;62581;47.342;7.908;2024-02-28T14:31:52;25.30;;;15.40;;
48835;SDS011;62581;47.342;7.908;2024-02-28T14:34:19;26.08;;;17.05;;
48835;SDS011;62581;47.342;7.908;2024-02-28T14:36:46;29.45;;;17.70;;
48835;SDS011;62581;47.342;7.908;2024-02-28T14:39:14;28.95;;;16.80;;